sensor_id;sensor_type;location;lat;lon;timestamp;P1;durP1;ratioP1;P2;durP2;ratioP2
1344;SDS011;15375;48.540;9.268;2023-03-23T00:01:18;3.60;;;3.07;;
1344;SDS011;15375;48.540;9.268;2023-03-23T00:03:49;4.67;;;3.10;;
1344;SDS011;15375;48.540;9.268;2023-03-23T00:06:16;4.37;;;3.80;;
1344;SDS011;15375;48.540;9.268;2023-03-23T00:08:49;3.93;;;2.87;;
1344;SDS011;15375;48.540;9.268;2023-03-23T00:11:19;4.90;;;2.83;;
1344;SDS011;15375;48.540;9.268;2023-03-23T00:13:46;3.37;;;2.83;;
1344;SDS011;15375;48.540;9.268;2023-03-23T00:16:16;10.23;;;3.53;;
1344;SDS011;15375;48.540;9.268;2023-03-23T00:18:47;2.50;;;2.30;;
1344;SDS011;15375;48.540;9.268;2023-03-23T00:21:17;3.80;;;3.10;;
1344;SDS011;15375;48.540;9.268;2023-03-23T00:23:43;3.90;;;3.00;;
1344;SDS011;15375;48.540;9.268;2023-03-23T00:26:10;4.63;;;3.47;;
1344;SDS011;15375;48.540;9.268;2023-03-23T00:28:36;4.80;;;3.43;;
1344;SDS011;15375;48.540;9.268;2023-03-23T00:31:04;4.40;;;2.97;;
1344;SDS011;15375;48.540;9.268;2023-03-23T00:33:32;3.93;;;2.80;;
1344;SDS011;15375;48.540;9.268;2023-03-23T00:36:03;4.60;;;2.90;;
1344;SDS011;15375;48.540;9.268;2023-03-23T00:38:29;5.70;;;2.80;;
1344;SDS011;15375;48.540;9.268;2023-03-23T00:40:58;4.73;;;2.60;;
1344;SDS011;15375;48.540;9.268;2023-03-23T00:43:27;3.17;;;2.50;;
1344;SDS011;15375;48.540;9.268;2023-03-23T00:45:54;5.03;;;2.77;;
1344;SDS011;15375;48.540;9.268;2023-03-23T00:48:20;4.43;;;2.93;;
1344;SDS011;15375;48.540;9.268;2023-03-23T00:50:49;3.30;;;2.17;;
1344;SDS011;15375;48.540;9.268;2023-03-23T00:53:16;2.83;;;2.50;;
1344;SDS011;15375;48.540;9.268;2023-03-23T00:55:43;2.43;;;2.23;;
1344;SDS011;15375;48.540;9.268;2023-03-23T00:58:10;2.90;;;2.43;;
1344;SDS011;15375;48.540;9.268;2023-03-23T01:00:37;2.80;;;2.60;;
1344;SDS011;15375;48.540;9.268;2023-03-23T01:03:03;3.30;;;3.00;;
1344;SDS011;15375;48.540;9.268;2023-03-23T01:05:29;2.53;;;2.33;;
1344;SDS011;15375;48.540;9.268;2023-03-23T01:07:59;4.77;;;3.20;;
1344;SDS011;15375;48.540;9.268;2023-03-23T01:10:24;3.57;;;2.73;;
1344;SDS011;15375;48.540;9.268;2023-03-23T01:12:51;2.20;;;2.00;;
1344;SDS011;15375;48.540;9.268;2023-03-23T01:15:18;3.90;;;3.10;;
1344;SDS011;15375;48.540;9.268;2023-03-23T01:17:43;2.60;;;2.40;;
1344;SDS011;15375;48.540;9.268;2023-03-23T01:20:11;4.83;;;2.57;;
1344;SDS011;15375;48.540;9.268;2023-03-23T01:22:38;3.53;;;2.70;;
1344;SDS011;15375;48.540;9.268;2023-03-23T01:25:04;2.60;;;2.10;;
1344;SDS011;15375;48.540;9.268;2023-03-23T01:27:30;3.80;;;2.40;;
1344;SDS011;15375;48.540;9.268;2023-03-23T01:29:56;2.70;;;2.43;;
1344;SDS011;15375;48.540;9.268;2023-03-23T01:32:21;3.30;;;2.50;;
1344;SDS011;15375;48.540;9.268;2023-03-23T01:34:47;2.60;;;2.03;;
1344;SDS011;15375;48.540;9.268;2023-03-23T01:37:12;2.80;;;2.30;;
1344;SDS011;15375;48.540;9.268;2023-03-23T01:39:37;4.97;;;2.43;;
1344;SDS011;15375;48.540;9.268;2023-03-23T01:42:03;2.70;;;2.50;;
1344;SDS011;15375;48.540;9.268;2023-03-23T01:46:54;2.60;;;2.37;;
1344;SDS011;15375;48.540;9.268;2023-03-23T01:49:24;3.60;;;2.47;;
1344;SDS011;15375;48.540;9.268;2023-03-23T01:52:28;3.80;;;2.50;;
1344;SDS011;15375;48.540;9.268;2023-03-23T01:54:52;2.30;;;2.10;;
1344;SDS011;15375;48.540;9.268;2023-03-23T01:57:21;3.23;;;2.80;;
1344;SDS011;15375;48.540;9.268;2023-03-23T01:59:52;6.10;;;3.00;;
1344;SDS011;15375;48.540;9.268;2023-03-23T02:02:21;4.20;;;2.17;;
1344;SDS011;15375;48.540;9.268;2023-03-23T02:04:49;3.00;;;2.80;;
1344;SDS011;15375;48.540;9.268;2023-03-23T02:07:15;3.43;;;2.10;;
1344;SDS011;15375;48.540;9.268;2023-03-23T02:09:43;2.63;;;1.90;;
1344;SDS011;15375;48.540;9.268;2023-03-23T02:12:08;2.63;;;2.40;;
1344;SDS011;15375;48.540;9.268;2023-03-23T02:14:34;2.97;;;2.70;;
1344;SDS011;15375;48.540;9.268;2023-03-23T02:30:52;2.50;;;2.00;;
1344;SDS011;15375;48.540;9.268;2023-03-23T02:36:30;2.47;;;2.10;;
1344;SDS011;15375;48.540;9.268;2023-03-23T02:39:10;3.50;;;2.30;;
1344;SDS011;15375;48.540;9.268;2023-03-23T02:41:52;3.37;;;2.77;;
1344;SDS011;15375;48.540;9.268;2023-03-23T02:44:23;2.53;;;2.33;;
1344;SDS011;15375;48.540;9.268;2023-03-23T02:46:54;2.97;;;2.03;;
1344;SDS011;15375;48.540;9.268;2023-03-23T02:49:22;2.07;;;1.83;;
1344;SDS011;15375;48.540;9.268;2023-03-23T02:51:50;3.33;;;1.70;;
1344;SDS011;15375;48.540;9.268;2023-03-23T02:54:16;1.80;;;1.70;;
1344;SDS011;15375;48.540;9.268;2023-03-23T02:56:43;2.43;;;1.57;;
1344;SDS011;15375;48.540;9.268;2023-03-23T02:59:10;4.00;;;1.57;;
1344;SDS011;15375;48.540;9.268;2023-03-23T03:04:04;1.73;;;1.57;;
1344;SDS011;15375;48.540;9.268;2023-03-23T03:11:42;1.40;;;1.30;;
1344;SDS011;15375;48.540;9.268;2023-03-23T03:14:13;2.07;;;1.50;;
1344;SDS011;15375;48.540;9.268;2023-03-23T03:19:44;1.43;;;1.20;;
1344;SDS011;15375;48.540;9.268;2023-03-23T03:22:13;1.73;;;1.10;;
1344;SDS011;15375;48.540;9.268;2023-03-23T03:24:40;2.17;;;1.17;;
1344;SDS011;15375;48.540;9.268;2023-03-23T03:27:11;1.50;;;1.40;;
1344;SDS011;15375;48.540;9.268;2023-03-23T03:29:43;2.57;;;1.73;;
1344;SDS011;15375;48.540;9.268;2023-03-23T03:32:16;4.73;;;1.40;;
1344;SDS011;15375;48.540;9.268;2023-03-23T03:34:47;2.93;;;1.50;;
1344;SDS011;15375;48.540;9.268;2023-03-23T03:37:15;1.47;;;1.27;;
1344;SDS011;15375;48.540;9.268;2023-03-23T03:39:42;1.93;;;1.67;;
1344;SDS011;15375;48.540;9.268;2023-03-23T03:42:08;2.60;;;1.30;;
1344;SDS011;15375;48.540;9.268;2023-03-23T03:44:33;3.40;;;1.57;;
1344;SDS011;15375;48.540;9.268;2023-03-23T03:46:59;1.80;;;1.70;;
1344;SDS011;15375;48.540;9.268;2023-03-23T03:49:25;2.17;;;1.23;;
1344;SDS011;15375;48.540;9.268;2023-03-23T03:51:51;1.40;;;1.07;;
1344;SDS011;15375;48.540;9.268;2023-03-23T03:54:16;3.43;;;1.50;;
1344;SDS011;15375;48.540;9.268;2023-03-23T03:56:42;1.73;;;1.40;;
1344;SDS011;15375;48.540;9.268;2023-03-23T03:59:08;2.30;;;1.23;;
1344;SDS011;15375;48.540;9.268;2023-03-23T04:01:34;1.77;;;1.17;;
1344;SDS011;15375;48.540;9.268;2023-03-23T04:04:02;3.90;;;1.50;;
1344;SDS011;15375;48.540;9.268;2023-03-23T04:06:28;1.73;;;1.63;;
1344;SDS011;15375;48.540;9.268;2023-03-23T04:08:54;2.00;;;1.47;;
1344;SDS011;15375;48.540;9.268;2023-03-23T04:11:20;1.37;;;1.27;;
1344;SDS011;15375;48.540;9.268;2023-03-23T04:13:46;2.27;;;1.40;;
1344;SDS011;15375;48.540;9.268;2023-03-23T04:16:11;2.40;;;2.20;;
1344;SDS011;15375;48.540;9.268;2023-03-23T04:18:36;4.23;;;1.83;;
1344;SDS011;15375;48.540;9.268;2023-03-23T04:21:02;2.50;;;1.17;;
1344;SDS011;15375;48.540;9.268;2023-03-23T04:23:29;2.20;;;1.40;;
1344;SDS011;15375;48.540;9.268;2023-03-23T04:25:58;1.40;;;1.30;;
1344;SDS011;15375;48.540;9.268;2023-03-23T04:28:24;1.70;;;1.60;;
1344;SDS011;15375;48.540;9.268;2023-03-23T04:30:51;1.70;;;1.60;;
1344;SDS011;15375;48.540;9.268;2023-03-23T04:33:23;2.07;;;1.87;;
1344;SDS011;15375;48.540;9.268;2023-03-23T04:35:54;2.60;;;1.20;;
1344;SDS011;15375;48.540;9.268;2023-03-23T04:38:21;1.43;;;1.33;;
1344;SDS011;15375;48.540;9.268;2023-03-23T04:40:49;1.77;;;1.67;;
1344;SDS011;15375;48.540;9.268;2023-03-23T04:43:16;1.67;;;1.57;;
1344;SDS011;15375;48.540;9.268;2023-03-23T04:45:46;1.73;;;1.40;;
1344;SDS011;15375;48.540;9.268;2023-03-23T04:48:11;2.17;;;1.77;;
1344;SDS011;15375;48.540;9.268;2023-03-23T04:50:37;1.60;;;1.50;;
1344;SDS011;15375;48.540;9.268;2023-03-23T04:53:03;4.03;;;1.50;;
1344;SDS011;15375;48.540;9.268;2023-03-23T04:55:33;1.87;;;1.60;;
1344;SDS011;15375;48.540;9.268;2023-03-23T04:58:03;2.07;;;1.87;;
1344;SDS011;15375;48.540;9.268;2023-03-23T05:00:30;2.10;;;1.90;;
1344;SDS011;15375;48.540;9.268;2023-03-23T05:02:57;2.00;;;1.90;;
1344;SDS011;15375;48.540;9.268;2023-03-23T05:05:23;1.70;;;1.57;;
1344;SDS011;15375;48.540;9.268;2023-03-23T05:07:50;2.07;;;1.87;;
1344;SDS011;15375;48.540;9.268;2023-03-23T05:10:16;1.73;;;1.63;;
1344;SDS011;15375;48.540;9.268;2023-03-23T05:12:42;2.27;;;1.87;;
1344;SDS011;15375;48.540;9.268;2023-03-23T05:15:09;1.60;;;1.50;;
1344;SDS011;15375;48.540;9.268;2023-03-23T05:17:36;1.90;;;1.70;;
1344;SDS011;15375;48.540;9.268;2023-03-23T05:20:03;1.90;;;1.80;;
1344;SDS011;15375;48.540;9.268;2023-03-23T05:22:31;2.17;;;1.97;;
1344;SDS011;15375;48.540;9.268;2023-03-23T05:24:59;2.00;;;1.77;;
1344;SDS011;15375;48.540;9.268;2023-03-23T05:27:27;2.27;;;1.77;;
1344;SDS011;15375;48.540;9.268;2023-03-23T05:29:55;2.50;;;1.37;;
1344;SDS011;15375;48.540;9.268;2023-03-23T05:32:23;6.57;;;2.50;;
1344;SDS011;15375;48.540;9.268;2023-03-23T05:34:53;1.63;;;1.53;;
1344;SDS011;15375;48.540;9.268;2023-03-23T05:37:19;1.37;;;1.27;;
1344;SDS011;15375;48.540;9.268;2023-03-23T05:39:45;1.90;;;1.67;;
1344;SDS011;15375;48.540;9.268;2023-03-23T05:42:10;1.80;;;1.70;;
1344;SDS011;15375;48.540;9.268;2023-03-23T05:44:35;1.77;;;1.50;;
1344;SDS011;15375;48.540;9.268;2023-03-23T05:47:01;1.53;;;1.40;;
1344;SDS011;15375;48.540;9.268;2023-03-23T05:49:26;3.10;;;1.53;;
1344;SDS011;15375;48.540;9.268;2023-03-23T05:51:52;2.00;;;1.53;;
1344;SDS011;15375;48.540;9.268;2023-03-23T05:54:17;2.70;;;1.60;;
1344;SDS011;15375;48.540;9.268;2023-03-23T05:56:43;2.30;;;1.43;;
1344;SDS011;15375;48.540;9.268;2023-03-23T05:59:08;1.40;;;1.30;;
1344;SDS011;15375;48.540;9.268;2023-03-23T06:01:35;1.63;;;1.53;;
1344;SDS011;15375;48.540;9.268;2023-03-23T06:04:01;2.57;;;1.87;;
1344;SDS011;15375;48.540;9.268;2023-03-23T06:06:27;1.73;;;1.63;;
1344;SDS011;15375;48.540;9.268;2023-03-23T06:08:54;1.40;;;1.30;;
1344;SDS011;15375;48.540;9.268;2023-03-23T06:11:20;2.03;;;1.83;;
1344;SDS011;15375;48.540;9.268;2023-03-23T06:13:46;2.13;;;1.57;;
1344;SDS011;15375;48.540;9.268;2023-03-23T06:16:12;1.30;;;1.20;;
1344;SDS011;15375;48.540;9.268;2023-03-23T06:18:38;3.20;;;1.93;;
1344;SDS011;15375;48.540;9.268;2023-03-23T06:21:05;2.63;;;1.90;;
1344;SDS011;15375;48.540;9.268;2023-03-23T06:23:31;2.13;;;1.77;;
1344;SDS011;15375;48.540;9.268;2023-03-23T06:25:57;2.90;;;1.70;;
1344;SDS011;15375;48.540;9.268;2023-03-23T06:28:25;3.83;;;2.10;;
1344;SDS011;15375;48.540;9.268;2023-03-23T06:30:50;3.17;;;1.90;;
1344;SDS011;15375;48.540;9.268;2023-03-23T06:33:16;2.40;;;1.53;;
1344;SDS011;15375;48.540;9.268;2023-03-23T06:35:42;2.97;;;2.00;;
1344;SDS011;15375;48.540;9.268;2023-03-23T06:38:08;2.57;;;1.97;;
1344;SDS011;15375;48.540;9.268;2023-03-23T06:40:34;3.27;;;1.63;;
1344;SDS011;15375;48.540;9.268;2023-03-23T06:43:01;1.50;;;1.40;;
1344;SDS011;15375;48.540;9.268;2023-03-23T06:45:27;2.30;;;1.90;;
1344;SDS011;15375;48.540;9.268;2023-03-23T06:47:52;3.43;;;2.23;;
1344;SDS011;15375;48.540;9.268;2023-03-23T06:50:17;1.70;;;1.60;;
1344;SDS011;15375;48.540;9.268;2023-03-23T06:52:47;1.60;;;1.50;;
1344;SDS011;15375;48.540;9.268;2023-03-23T06:55:13;3.20;;;1.90;;
1344;SDS011;15375;48.540;9.268;2023-03-23T06:57:39;2.30;;;1.47;;
1344;SDS011;15375;48.540;9.268;2023-03-23T07:00:05;2.20;;;1.53;;
1344;SDS011;15375;48.540;9.268;2023-03-23T07:02:33;3.40;;;1.70;;
1344;SDS011;15375;48.540;9.268;2023-03-23T07:04:59;3.30;;;1.70;;
1344;SDS011;15375;48.540;9.268;2023-03-23T07:07:25;4.77;;;1.73;;
1344;SDS011;15375;48.540;9.268;2023-03-23T07:09:51;3.43;;;1.70;;
1344;SDS011;15375;48.540;9.268;2023-03-23T07:12:16;2.57;;;2.37;;
1344;SDS011;15375;48.540;9.268;2023-03-23T07:14:41;2.63;;;1.87;;
1344;SDS011;15375;48.540;9.268;2023-03-23T07:17:07;1.53;;;1.43;;
1344;SDS011;15375;48.540;9.268;2023-03-23T07:19:32;2.83;;;2.10;;
1344;SDS011;15375;48.540;9.268;2023-03-23T07:21:58;2.37;;;2.17;;
1344;SDS011;15375;48.540;9.268;2023-03-23T07:24:23;4.00;;;2.93;;
1344;SDS011;15375;48.540;9.268;2023-03-23T07:26:49;4.77;;;1.87;;
1344;SDS011;15375;48.540;9.268;2023-03-23T07:29:14;2.20;;;2.10;;
1344;SDS011;15375;48.540;9.268;2023-03-23T07:31:39;2.67;;;1.97;;
1344;SDS011;15375;48.540;9.268;2023-03-23T07:34:05;3.40;;;2.00;;
1344;SDS011;15375;48.540;9.268;2023-03-23T07:36:31;5.80;;;2.70;;
1344;SDS011;15375;48.540;9.268;2023-03-23T07:38:57;2.40;;;2.20;;
1344;SDS011;15375;48.540;9.268;2023-03-23T07:41:23;2.73;;;2.43;;
1344;SDS011;15375;48.540;9.268;2023-03-23T07:43:49;3.60;;;2.00;;
1344;SDS011;15375;48.540;9.268;2023-03-23T07:46:14;2.30;;;1.90;;
1344;SDS011;15375;48.540;9.268;2023-03-23T07:48:42;2.40;;;2.20;;
1344;SDS011;15375;48.540;9.268;2023-03-23T07:51:08;2.93;;;2.30;;
1344;SDS011;15375;48.540;9.268;2023-03-23T07:53:33;3.00;;;1.87;;
1344;SDS011;15375;48.540;9.268;2023-03-23T07:55:59;3.10;;;2.10;;
1344;SDS011;15375;48.540;9.268;2023-03-23T07:58:24;2.30;;;1.80;;
1344;SDS011;15375;48.540;9.268;2023-03-23T08:00:51;2.23;;;2.03;;
1344;SDS011;15375;48.540;9.268;2023-03-23T08:03:17;2.40;;;2.20;;
1344;SDS011;15375;48.540;9.268;2023-03-23T08:05:43;3.13;;;2.20;;
1344;SDS011;15375;48.540;9.268;2023-03-23T08:08:08;2.63;;;1.87;;
1344;SDS011;15375;48.540;9.268;2023-03-23T08:10:34;2.60;;;2.40;;
1344;SDS011;15375;48.540;9.268;2023-03-23T08:13:00;2.30;;;2.10;;
1344;SDS011;15375;48.540;9.268;2023-03-23T08:15:27;4.17;;;2.33;;
1344;SDS011;15375;48.540;9.268;2023-03-23T08:17:53;2.13;;;2.00;;
1344;SDS011;15375;48.540;9.268;2023-03-23T08:20:19;2.43;;;2.07;;
1344;SDS011;15375;48.540;9.268;2023-03-23T08:22:50;3.10;;;2.57;;
1344;SDS011;15375;48.540;9.268;2023-03-23T08:25:18;2.47;;;2.20;;
1344;SDS011;15375;48.540;9.268;2023-03-23T08:27:45;4.60;;;2.20;;
1344;SDS011;15375;48.540;9.268;2023-03-23T08:30:11;1.97;;;1.70;;
1344;SDS011;15375;48.540;9.268;2023-03-23T08:32:38;2.70;;;2.50;;
1344;SDS011;15375;48.540;9.268;2023-03-23T08:35:05;2.40;;;2.10;;
1344;SDS011;15375;48.540;9.268;2023-03-23T08:37:32;3.07;;;1.83;;
1344;SDS011;15375;48.540;9.268;2023-03-23T08:39:57;3.93;;;2.00;;
1344;SDS011;15375;48.540;9.268;2023-03-23T08:42:23;1.83;;;1.63;;
1344;SDS011;15375;48.540;9.268;2023-03-23T08:44:50;2.30;;;1.87;;
1344;SDS011;15375;48.540;9.268;2023-03-23T08:47:16;2.10;;;1.73;;
1344;SDS011;15375;48.540;9.268;2023-03-23T08:49:42;4.40;;;2.37;;
1344;SDS011;15375;48.540;9.268;2023-03-23T08:52:08;2.50;;;2.30;;
1344;SDS011;15375;48.540;9.268;2023-03-23T08:54:34;1.83;;;1.57;;
1344;SDS011;15375;48.540;9.268;2023-03-23T08:57:00;1.83;;;1.73;;
1344;SDS011;15375;48.540;9.268;2023-03-23T08:59:26;3.23;;;1.90;;
1344;SDS011;15375;48.540;9.268;2023-03-23T09:01:52;1.60;;;1.50;;
1344;SDS011;15375;48.540;9.268;2023-03-23T09:04:17;2.33;;;2.13;;
1344;SDS011;15375;48.540;9.268;2023-03-23T09:06:43;1.93;;;1.73;;
1344;SDS011;15375;48.540;9.268;2023-03-23T09:09:09;3.07;;;1.67;;
1344;SDS011;15375;48.540;9.268;2023-03-23T09:11:35;1.80;;;1.60;;
1344;SDS011;15375;48.540;9.268;2023-03-23T09:14:01;3.33;;;1.97;;
1344;SDS011;15375;48.540;9.268;2023-03-23T09:16:28;1.57;;;1.47;;
1344;SDS011;15375;48.540;9.268;2023-03-23T09:18:54;2.70;;;1.83;;
1344;SDS011;15375;48.540;9.268;2023-03-23T09:21:21;5.13;;;1.90;;
1344;SDS011;15375;48.540;9.268;2023-03-23T09:23:48;3.20;;;1.53;;
1344;SDS011;15375;48.540;9.268;2023-03-23T09:26:13;1.50;;;1.40;;
1344;SDS011;15375;48.540;9.268;2023-03-23T09:28:39;2.30;;;1.40;;
1344;SDS011;15375;48.540;9.268;2023-03-23T09:31:04;2.27;;;1.80;;
1344;SDS011;15375;48.540;9.268;2023-03-23T09:33:30;1.60;;;1.50;;
1344;SDS011;15375;48.540;9.268;2023-03-23T09:35:59;3.50;;;2.07;;
1344;SDS011;15375;48.540;9.268;2023-03-23T09:38:25;1.60;;;1.40;;
1344;SDS011;15375;48.540;9.268;2023-03-23T09:41:03;1.47;;;1.37;;
1344;SDS011;15375;48.540;9.268;2023-03-23T09:46:17;2.50;;;2.30;;
1344;SDS011;15375;48.540;9.268;2023-03-23T09:48:52;2.53;;;1.70;;
1344;SDS011;15375;48.540;9.268;2023-03-23T09:51:38;2.47;;;1.77;;
1344;SDS011;15375;48.540;9.268;2023-03-23T09:54:09;1.97;;;1.57;;
1344;SDS011;15375;48.540;9.268;2023-03-23T09:56:35;1.63;;;1.53;;
1344;SDS011;15375;48.540;9.268;2023-03-23T09:59:16;2.70;;;1.70;;
1344;SDS011;15375;48.540;9.268;2023-03-23T10:01:47;1.67;;;1.57;;
1344;SDS011;15375;48.540;9.268;2023-03-23T10:04:26;2.50;;;2.23;;
1344;SDS011;15375;48.540;9.268;2023-03-23T10:07:09;2.83;;;1.93;;
1344;SDS011;15375;48.540;9.268;2023-03-23T10:09:37;1.57;;;1.47;;
1344;SDS011;15375;48.540;9.268;2023-03-23T10:12:10;5.10;;;1.57;;
1344;SDS011;15375;48.540;9.268;2023-03-23T10:14:50;2.13;;;1.93;;
1344;SDS011;15375;48.540;9.268;2023-03-23T10:17:28;2.70;;;2.07;;
1344;SDS011;15375;48.540;9.268;2023-03-23T10:25:28;2.03;;;1.83;;
1344;SDS011;15375;48.540;9.268;2023-03-23T10:30:36;1.93;;;1.83;;
1344;SDS011;15375;48.540;9.268;2023-03-23T10:33:13;1.80;;;1.67;;
1344;SDS011;15375;48.540;9.268;2023-03-23T10:35:47;1.83;;;1.50;;
1344;SDS011;15375;48.540;9.268;2023-03-23T10:38:20;2.37;;;1.60;;
1344;SDS011;15375;48.540;9.268;2023-03-23T10:40:54;1.87;;;1.77;;
1344;SDS011;15375;48.540;9.268;2023-03-23T10:43:23;1.67;;;1.53;;
1344;SDS011;15375;48.540;9.268;2023-03-23T10:49:07;2.63;;;1.83;;
1344;SDS011;15375;48.540;9.268;2023-03-23T10:51:37;3.53;;;1.60;;
1344;SDS011;15375;48.540;9.268;2023-03-23T10:54:07;1.60;;;1.50;;
1344;SDS011;15375;48.540;9.268;2023-03-23T10:56:43;1.83;;;1.57;;
1344;SDS011;15375;48.540;9.268;2023-03-23T10:59:14;4.00;;;1.77;;
1344;SDS011;15375;48.540;9.268;2023-03-23T11:02:00;2.00;;;1.80;;
1344;SDS011;15375;48.540;9.268;2023-03-23T11:04:28;2.60;;;1.70;;
1344;SDS011;15375;48.540;9.268;2023-03-23T11:06:58;2.30;;;2.00;;
1344;SDS011;15375;48.540;9.268;2023-03-23T11:12:23;2.77;;;1.77;;
1344;SDS011;15375;48.540;9.268;2023-03-23T11:14:48;1.77;;;1.67;;
1344;SDS011;15375;48.540;9.268;2023-03-23T11:17:22;1.97;;;1.60;;
1344;SDS011;15375;48.540;9.268;2023-03-23T11:19:49;1.70;;;1.50;;
1344;SDS011;15375;48.540;9.268;2023-03-23T11:22:36;2.03;;;1.50;;
1344;SDS011;15375;48.540;9.268;2023-03-23T11:25:03;1.60;;;1.33;;
1344;SDS011;15375;48.540;9.268;2023-03-23T11:27:30;3.97;;;1.83;;
1344;SDS011;15375;48.540;9.268;2023-03-23T11:30:07;2.53;;;1.83;;
1344;SDS011;15375;48.540;9.268;2023-03-23T11:32:36;1.90;;;1.63;;
1344;SDS011;15375;48.540;9.268;2023-03-23T11:35:04;2.20;;;1.40;;
1344;SDS011;15375;48.540;9.268;2023-03-23T11:37:40;1.80;;;1.50;;
1344;SDS011;15375;48.540;9.268;2023-03-23T11:42:41;1.70;;;1.60;;
1344;SDS011;15375;48.540;9.268;2023-03-23T11:45:20;3.70;;;1.90;;
1344;SDS011;15375;48.540;9.268;2023-03-23T11:48:00;1.90;;;1.40;;
1344;SDS011;15375;48.540;9.268;2023-03-23T11:50:43;1.97;;;1.73;;
1344;SDS011;15375;48.540;9.268;2023-03-23T11:58:13;1.90;;;1.63;;
1344;SDS011;15375;48.540;9.268;2023-03-23T12:00:55;2.53;;;1.83;;
1344;SDS011;15375;48.540;9.268;2023-03-23T12:03:22;2.27;;;1.60;;
1344;SDS011;15375;48.540;9.268;2023-03-23T12:08:45;1.90;;;1.80;;
1344;SDS011;15375;48.540;9.268;2023-03-23T12:14:14;1.97;;;1.67;;
1344;SDS011;15375;48.540;9.268;2023-03-23T12:19:42;4.00;;;1.60;;
1344;SDS011;15375;48.540;9.268;2023-03-23T12:22:18;1.90;;;1.70;;
1344;SDS011;15375;48.540;9.268;2023-03-23T12:30:32;2.90;;;2.10;;
1344;SDS011;15375;48.540;9.268;2023-03-23T12:35:51;8.40;;;1.77;;
1344;SDS011;15375;48.540;9.268;2023-03-23T12:38:30;2.70;;;2.30;;
1344;SDS011;15375;48.540;9.268;2023-03-23T12:48:39;2.40;;;2.20;;
1344;SDS011;15375;48.540;9.268;2023-03-23T12:53:53;1.93;;;1.83;;
1344;SDS011;15375;48.540;9.268;2023-03-23T12:59:36;2.53;;;1.80;;
1344;SDS011;15375;48.540;9.268;2023-03-23T13:04:37;1.83;;;1.73;;
1344;SDS011;15375;48.540;9.268;2023-03-23T13:07:06;1.67;;;1.57;;
1344;SDS011;15375;48.540;9.268;2023-03-23T13:12:13;1.63;;;1.50;;
1344;SDS011;15375;48.540;9.268;2023-03-23T13:14:52;2.60;;;2.07;;
1344;SDS011;15375;48.540;9.268;2023-03-23T13:17:29;3.07;;;1.93;;
1344;SDS011;15375;48.540;9.268;2023-03-23T13:23:05;2.07;;;1.90;;
1344;SDS011;15375;48.540;9.268;2023-03-23T13:28:14;2.13;;;1.93;;
1344;SDS011;15375;48.540;9.268;2023-03-23T13:31:33;3.27;;;1.77;;
1344;SDS011;15375;48.540;9.268;2023-03-23T13:33:45;4.00;;;1.90;;
1344;SDS011;15375;48.540;9.268;2023-03-23T13:36:14;2.40;;;2.30;;
1344;SDS011;15375;48.540;9.268;2023-03-23T13:38:45;2.17;;;1.97;;
1344;SDS011;15375;48.540;9.268;2023-03-23T13:41:14;1.73;;;1.63;;
1344;SDS011;15375;48.540;9.268;2023-03-23T13:43:43;3.20;;;1.87;;
1344;SDS011;15375;48.540;9.268;2023-03-23T13:46:30;2.87;;;2.33;;
1344;SDS011;15375;48.540;9.268;2023-03-23T13:54:19;2.90;;;2.70;;
1344;SDS011;15375;48.540;9.268;2023-03-23T13:56:52;2.60;;;2.13;;
1344;SDS011;15375;48.540;9.268;2023-03-23T14:01:53;2.23;;;1.90;;
1344;SDS011;15375;48.540;9.268;2023-03-23T14:04:20;3.10;;;1.80;;
1344;SDS011;15375;48.540;9.268;2023-03-23T14:06:49;4.10;;;2.00;;
1344;SDS011;15375;48.540;9.268;2023-03-23T14:12:05;4.70;;;2.10;;
1344;SDS011;15375;48.540;9.268;2023-03-23T14:14:42;1.97;;;1.87;;
1344;SDS011;15375;48.540;9.268;2023-03-23T14:19:39;2.17;;;2.07;;
1344;SDS011;15375;48.540;9.268;2023-03-23T14:22:16;3.50;;;2.00;;
1344;SDS011;15375;48.540;9.268;2023-03-23T14:25:00;3.43;;;2.30;;
1344;SDS011;15375;48.540;9.268;2023-03-23T14:27:30;4.23;;;2.37;;
1344;SDS011;15375;48.540;9.268;2023-03-23T14:30:06;2.73;;;1.87;;
1344;SDS011;15375;48.540;9.268;2023-03-23T14:32:33;2.67;;;2.43;;
1344;SDS011;15375;48.540;9.268;2023-03-23T14:35:00;3.13;;;2.07;;
1344;SDS011;15375;48.540;9.268;2023-03-23T14:37:32;1.97;;;1.87;;
1344;SDS011;15375;48.540;9.268;2023-03-23T14:40:11;2.50;;;2.23;;
1344;SDS011;15375;48.540;9.268;2023-03-23T14:42:39;4.33;;;2.20;;
1344;SDS011;15375;48.540;9.268;2023-03-23T14:45:05;2.30;;;2.00;;
1344;SDS011;15375;48.540;9.268;2023-03-23T14:47:32;2.43;;;2.23;;
1344;SDS011;15375;48.540;9.268;2023-03-23T14:50:01;4.83;;;2.60;;
1344;SDS011;15375;48.540;9.268;2023-03-23T14:52:33;2.67;;;2.33;;
1344;SDS011;15375;48.540;9.268;2023-03-23T14:57:49;2.90;;;2.60;;
1344;SDS011;15375;48.540;9.268;2023-03-23T15:00:16;2.37;;;2.17;;
1344;SDS011;15375;48.540;9.268;2023-03-23T15:02:48;3.90;;;2.40;;
1344;SDS011;15375;48.540;9.268;2023-03-23T15:05:17;2.33;;;2.10;;
1344;SDS011;15375;48.540;9.268;2023-03-23T15:07:52;2.63;;;2.40;;
1344;SDS011;15375;48.540;9.268;2023-03-23T15:10:21;2.80;;;2.30;;
1344;SDS011;15375;48.540;9.268;2023-03-23T15:12:48;2.63;;;2.03;;
1344;SDS011;15375;48.540;9.268;2023-03-23T15:15:26;2.93;;;2.30;;
1344;SDS011;15375;48.540;9.268;2023-03-23T15:17:54;2.93;;;2.50;;
1344;SDS011;15375;48.540;9.268;2023-03-23T15:20:30;2.70;;;2.30;;
1344;SDS011;15375;48.540;9.268;2023-03-23T15:23:13;5.47;;;2.30;;
1344;SDS011;15375;48.540;9.268;2023-03-23T15:25:46;2.23;;;1.90;;
1344;SDS011;15375;48.540;9.268;2023-03-23T15:28:27;3.20;;;2.43;;
1344;SDS011;15375;48.540;9.268;2023-03-23T15:30:56;2.37;;;2.17;;
1344;SDS011;15375;48.540;9.268;2023-03-23T15:33:25;2.67;;;2.37;;
1344;SDS011;15375;48.540;9.268;2023-03-23T15:35:55;2.10;;;1.90;;
1344;SDS011;15375;48.540;9.268;2023-03-23T15:38:23;2.70;;;2.00;;
1344;SDS011;15375;48.540;9.268;2023-03-23T15:40:52;2.53;;;2.17;;
1344;SDS011;15375;48.540;9.268;2023-03-23T15:43:20;2.43;;;2.23;;
1344;SDS011;15375;48.540;9.268;2023-03-23T15:46:00;5.03;;;2.30;;
1344;SDS011;15375;48.540;9.268;2023-03-23T15:48:46;3.00;;;2.70;;
1344;SDS011;15375;48.540;9.268;2023-03-23T15:51:22;3.10;;;2.40;;
1344;SDS011;15375;48.540;9.268;2023-03-23T15:53:50;2.37;;;2.10;;
1344;SDS011;15375;48.540;9.268;2023-03-23T15:56:17;2.67;;;2.47;;
1344;SDS011;15375;48.540;9.268;2023-03-23T15:58:43;2.60;;;2.40;;
1344;SDS011;15375;48.540;9.268;2023-03-23T16:01:17;7.47;;;2.63;;
1344;SDS011;15375;48.540;9.268;2023-03-23T16:03:50;3.00;;;2.27;;
1344;SDS011;15375;48.540;9.268;2023-03-23T16:06:19;4.60;;;2.70;;
1344;SDS011;15375;48.540;9.268;2023-03-23T16:08:45;2.60;;;2.40;;
1344;SDS011;15375;48.540;9.268;2023-03-23T16:11:14;4.33;;;2.70;;
1344;SDS011;15375;48.540;9.268;2023-03-23T16:13:41;3.40;;;2.67;;
1344;SDS011;15375;48.540;9.268;2023-03-23T16:16:17;4.50;;;2.60;;
1344;SDS011;15375;48.540;9.268;2023-03-23T16:18:48;4.10;;;2.17;;
1344;SDS011;15375;48.540;9.268;2023-03-23T16:21:13;2.47;;;2.27;;
1344;SDS011;15375;48.540;9.268;2023-03-23T16:23:39;3.60;;;2.43;;
1344;SDS011;15375;48.540;9.268;2023-03-23T16:26:08;2.90;;;2.33;;
1344;SDS011;15375;48.540;9.268;2023-03-23T16:28:34;3.90;;;2.50;;
1344;SDS011;15375;48.540;9.268;2023-03-23T16:30:59;4.50;;;2.63;;
1344;SDS011;15375;48.540;9.268;2023-03-23T16:33:24;3.47;;;2.30;;
1344;SDS011;15375;48.540;9.268;2023-03-23T16:35:49;2.47;;;2.27;;
1344;SDS011;15375;48.540;9.268;2023-03-23T16:38:15;2.50;;;2.30;;
1344;SDS011;15375;48.540;9.268;2023-03-23T16:40:42;3.70;;;2.73;;
1344;SDS011;15375;48.540;9.268;2023-03-23T16:43:08;2.63;;;2.23;;
1344;SDS011;15375;48.540;9.268;2023-03-23T16:45:35;5.70;;;4.60;;
1344;SDS011;15375;48.540;9.268;2023-03-23T16:48:01;3.10;;;2.80;;
1344;SDS011;15375;48.540;9.268;2023-03-23T16:50:27;3.27;;;2.97;;
1344;SDS011;15375;48.540;9.268;2023-03-23T16:52:56;2.70;;;2.50;;
1344;SDS011;15375;48.540;9.268;2023-03-23T16:55:21;2.50;;;2.30;;
1344;SDS011;15375;48.540;9.268;2023-03-23T16:57:51;2.70;;;2.50;;
1344;SDS011;15375;48.540;9.268;2023-03-23T17:00:17;3.47;;;2.80;;
1344;SDS011;15375;48.540;9.268;2023-03-23T17:02:48;2.60;;;2.40;;